Time;durP1;ratioP1;P1;durP2;ratioP2;P2;SDS_P1;SDS_P2;PMS_P1;PMS_P2;Temp;Humidity;BMP_temperature;BMP_pressure;BME280_temperature;BME280_humidity;BME280_pressure;Samples;Min_cycle;Max_cycle;Signal;HPM_P1;HPM_P2
2021/03/20 00:01:28;;;;;;;14.05;9.48;;;;;;;-0.63;84.78;99168.58;1747147;79;21005;-58
2021/03/20 00:03:56;;;;;;;11.75;8.98;;;;;;;-0.63;84.88;99166.77;1747916;79;21561;-59
2021/03/20 00:06:31;;;;;;;12.90;9.58;;;;;;;-0.60;84.85;99170.98;1776118;79;21016;-59
2021/03/20 00:08:59;;;;;;;12.65;8.28;;;;;;;-0.57;85.00;99162.91;1766387;79;21154;-60
2021/03/20 00:11:27;;;;;;;14.40;9.28;;;;;;;-0.54;84.97;99171.84;1762419;80;21360;-59
2021/03/20 00:13:57;;;;;;;12.88;9.55;;;;;;;-0.53;84.76;99170.06;1770985;79;21017;-58
2021/03/20 00:16:24;;;;;;;11.68;8.78;;;;;;;-0.53;84.64;99164.84;1751968;79;21044;-57
2021/03/20 00:18:53;;;;;;;10.20;8.75;;;;;;;-0.54;84.52;99165.77;1777080;79;21121;-59
2021/03/20 00:21:21;;;;;;;11.85;8.93;;;;;;;-0.58;84.42;99164.33;1794653;79;21201;-58
2021/03/20 00:23:48;;;;;;;12.13;9.05;;;;;;;-0.62;84.47;99158.47;1752772;79;21197;-58
2021/03/20 00:26:15;;;;;;;11.33;8.90;;;;;;;-0.66;84.53;99163.09;1757535;79;21621;-57
2021/03/20 00:28:43;;;;;;;12.25;9.45;;;;;;;-0.66;84.62;99165.71;1760108;79;21037;-59
2021/03/20 00:31:11;;;;;;;10.45;8.50;;;;;;;-0.70;84.58;99166.01;1760495;79;21036;-58
2021/03/20 00:33:41;;;;;;;13.00;9.05;;;;;;;-0.76;84.57;99163.38;1760238;79;21060;-58
2021/03/20 00:36:09;;;;;;;14.78;9.55;;;;;;;-0.82;84.65;99167.72;1776302;79;21134;-58
2021/03/20 00:38:37;;;;;;;11.97;9.08;;;;;;;-0.85;84.75;99160.55;1774516;78;21069;-60
2021/03/20 00:41:08;;;;;;;13.65;9.45;;;;;;;-0.87;84.89;99157.22;1783691;79;21119;-58
2021/03/20 00:43:36;;;;;;;11.33;8.53;;;;;;;-0.89;84.96;99161.27;1776593;80;21589;-58
2021/03/20 00:46:05;;;;;;;11.75;9.23;;;;;;;-0.93;85.06;99153.25;1768203;80;20992;-58
2021/03/20 00:48:37;;;;;;;14.87;9.30;;;;;;;-0.96;85.11;99154.77;1776686;80;21609;-58
2021/03/20 00:51:05;;;;;;;16.32;9.68;;;;;;;-0.97;85.17;99161.41;1774330;80;21637;-58
2021/03/20 00:53:32;;;;;;;16.60;9.78;;;;;;;-1.01;85.24;99155.56;1776351;80;21248;-58
2021/03/20 00:56:01;;;;;;;13.80;9.05;;;;;;;-1.01;85.34;99158.63;1757124;80;20949;-59
2021/03/20 00:58:38;;;;;;;12.50;8.55;;;;;;;-1.01;85.35;99158.63;1745779;80;21194;-60
2021/03/20 01:01:17;;;;;;;12.35;9.68;;;;;;;-1.02;85.46;99159.12;1776296;80;21570;-58
2021/03/20 01:03:47;;;;;;;15.65;9.25;;;;;;;-1.04;85.42;99157.56;1766892;80;21628;-60
2021/03/20 01:06:21;;;;;;;13.35;8.28;;;;;;;-1.08;85.45;99155.63;1763783;80;21550;-59
2021/03/20 01:08:52;;;;;;;10.82;8.28;;;;;;;-1.09;85.51;99163.55;1776747;80;21463;-60
2021/03/20 01:11:21;;;;;;;14.83;8.55;;;;;;;-1.11;85.57;99156.30;1776584;80;21122;-59
2021/03/20 01:13:49;;;;;;;12.60;8.45;;;;;;;-1.12;85.60;99154.64;1761325;80;21348;-59
2021/03/20 01:16:18;;;;;;;11.60;8.65;;;;;;;-1.13;85.72;99156.88;1747136;80;21175;-60
2021/03/20 01:18:46;;;;;;;11.30;8.63;;;;;;;-1.14;85.79;99156.50;1776474;80;21224;-59
2021/03/20 01:21:14;;;;;;;12.63;9.05;;;;;;;-1.15;85.82;99155.69;1776485;80;20996;-60
2021/03/20 01:23:43;;;;;;;12.25;9.03;;;;;;;-1.15;85.85;99162.22;1774107;80;21155;-58
2021/03/20 01:26:10;;;;;;;11.57;8.23;;;;;;;-1.18;85.91;99151.98;1774944;80;21408;-59
2021/03/20 01:28:39;;;;;;;11.18;8.65;;;;;;;-1.18;85.96;99158.50;1776506;80;20977;-60
2021/03/20 01:31:08;;;;;;;11.25;9.08;;;;;;;-1.19;86.03;99158.12;1776485;80;21103;-59
2021/03/20 01:33:36;;;;;;;11.10;8.40;;;;;;;-1.21;86.06;99154.80;1751490;80;21139;-58
2021/03/20 01:36:07;;;;;;;11.78;9.08;;;;;;;-1.22;86.11;99161.41;1709246;84;21041;-59
2021/03/20 01:38:35;;;;;;;11.95;9.58;;;;;;;-1.25;86.25;99155.92;1770781;80;21276;-58
2021/03/20 01:41:06;;;;;;;10.88;9.00;;;;;;;-1.25;86.36;99161.98;1778068;80;21597;-58
2021/03/20 01:43:34;;;;;;;12.73;9.50;;;;;;;-1.24;86.40;99166.73;1784528;79;20989;-58
2021/03/20 01:46:36;;;;;;;13.25;9.15;;;;;;;-1.25;86.51;99169.81;1800222;79;21198;-58
2021/03/20 01:49:26;;;;;;;11.78;9.70;;;;;;;-1.24;86.57;99164.13;1782335;79;21009;-58
2021/03/20 01:52:19;;;;;;;13.83;10.40;;;;;;;-1.26;86.66;99162.94;1782721;79;21392;-58
2021/03/20 01:54:55;;;;;;;13.15;9.60;;;;;;;-1.25;86.79;99168.51;1785650;79;21033;-57
2021/03/20 01:57:34;;;;;;;13.28;10.32;;;;;;;-1.22;86.98;99175.30;1784095;79;20973;-59
2021/03/20 02:00:07;;;;;;;15.25;10.50;;;;;;;-1.19;86.99;99172.48;1794424;79;20925;-58
2021/03/20 02:02:36;;;;;;;13.93;10.85;;;;;;;-1.17;87.01;99176.31;1799849;79;20997;-57
2021/03/20 02:05:06;;;;;;;14.75;11.20;;;;;;;-1.17;87.04;99172.39;1794262;79;21341;-57
2021/03/20 02:07:34;;;;;;;14.03;10.72;;;;;;;-1.16;87.16;99176.19;1802841;79;21048;-58
2021/03/20 02:10:05;;;;;;;13.88;10.82;;;;;;;-1.14;87.13;99178.69;1795996;79;21104;-58
2021/03/20 02:12:35;;;;;;;16.17;11.38;;;;;;;-1.15;87.21;99177.03;1789105;79;21155;-58
2021/03/20 02:15:26;;;;;;;15.40;10.93;;;;;;;-1.14;87.30;99179.99;1784650;79;21147;-57
2021/03/20 02:18:03;;;;;;;16.52;11.28;;;;;;;-1.15;87.31;99183.09;1798036;79;21430;-57
2021/03/20 02:20:42;;;;;;;15.15;11.18;;;;;;;-1.15;87.37;99182.26;1782702;79;21555;-57
2021/03/20 02:23:32;;;;;;;15.53;10.53;;;;;;;-1.13;87.45;99183.83;1798518;79;21114;-58
2021/03/20 02:26:44;;;;;;;13.70;11.15;;;;;;;-1.12;87.43;99182.05;1783315;79;21107;-58
2021/03/20 02:29:37;;;;;;;13.48;10.23;;;;;;;-1.14;87.42;99183.45;1793702;79;21101;-56
2021/03/20 02:32:46;;;;;;;12.33;9.30;;;;;;;-1.16;87.53;99184.48;1812406;79;21361;-58
2021/03/20 02:35:38;;;;;;;12.13;9.40;;;;;;;-1.15;87.62;99183.56;1791001;79;21037;-58
2021/03/20 02:38:35;;;;;;;12.23;8.93;;;;;;;-1.15;87.62;99185.70;1795216;79;20986;-58
2021/03/20 02:41:25;;;;;;;13.32;9.18;;;;;;;-1.15;87.59;99187.48;1781428;79;21017;-58
2021/03/20 02:44:16;;;;;;;13.62;9.33;;;;;;;-1.14;87.62;99193.05;1773979;79;21044;-58
2021/03/20 02:46:57;;;;;;;12.73;10.13;;;;;;;-1.12;87.67;99197.22;1775947;79;21355;-58
2021/03/20 02:49:34;;;;;;;12.58;8.45;;;;;;;-1.10;87.53;99197.14;1773966;79;21017;-57
2021/03/20 02:52:09;;;;;;;11.83;9.28;;;;;;;-1.09;87.54;99204.02;1773922;79;21211;-57
2021/03/20 02:55:09;;;;;;;11.75;8.65;;;;;;;-1.09;87.43;99201.40;1773329;79;21081;-58
2021/03/20 02:57:57;;;;;;;13.05;9.45;;;;;;;-1.09;87.46;99204.85;1774023;79;21005;-57
2021/03/20 03:00:30;;;;;;;13.45;9.08;;;;;;;-1.08;87.42;99204.39;1774022;79;21359;-59
2021/03/20 03:02:57;;;;;;;11.18;8.93;;;;;;;-1.14;87.46;99203.02;1773893;79;21116;-58
2021/03/20 03:05:32;;;;;;;11.25;8.63;;;;;;;-1.13;87.65;99209.09;1751564;80;21005;-58
2021/03/20 03:08:04;;;;;;;9.55;8.08;;;;;;;-1.12;87.59;99206.36;1773941;79;21508;-58
2021/03/20 03:10:45;;;;;;;12.47;8.55;;;;;;;-1.12;87.60;99209.47;1773110;79;21128;-58
2021/03/20 03:13:23;;;;;;;9.23;7.15;;;;;;;-1.14;87.63;99209.55;1773393;79;21392;-59
2021/03/20 03:16:01;;;;;;;10.58;8.48;;;;;;;-1.13;87.83;99214.31;1780445;79;20942;-59
2021/03/20 03:18:44;;;;;;;8.43;7.08;;;;;;;-1.14;87.89;99213.93;1802507;79;20972;-60
2021/03/20 03:21:13;;;;;;;10.30;8.48;;;;;;;-1.13;87.98;99222.14;1783275;79;21492;-57
2021/03/20 03:23:41;;;;;;;12.82;8.53;;;;;;;-1.15;87.95;99223.56;1743439;80;21108;-57
2021/03/20 03:26:15;;;;;;;12.28;8.95;;;;;;;-1.16;88.08;99223.19;1787588;79;21405;-59
2021/03/20 03:28:49;;;;;;;13.00;8.97;;;;;;;-1.16;88.09;99227.56;1794548;79;21268;-57
2021/03/20 03:31:36;;;;;;;10.53;8.28;;;;;;;-1.18;88.25;99228.14;1773810;79;21171;-57
2021/03/20 03:34:08;;;;;;;11.93;8.38;;;;;;;-1.18;88.40;99233.36;1784883;79;21113;-57
2021/03/20 03:36:41;;;;;;;10.98;8.68;;;;;;;-1.19;88.52;99239.51;1802998;79;21088;-56
2021/03/20 03:39:31;;;;;;;10.82;8.95;;;;;;;-1.18;88.65;99232.91;1773273;79;21391;-58
2021/03/20 03:41:59;;;;;;;10.68;7.92;;;;;;;-1.14;88.71;99236.12;1773281;79;20946;-58
2021/03/20 03:44:26;;;;;;;13.58;8.55;;;;;;;-1.14;88.54;99243.48;1785262;79;20968;-58
2021/03/20 03:46:53;;;;;;;12.63;9.38;;;;;;;-1.16;88.47;99240.61;1781812;79;21199;-59
2021/03/20 03:49:22;;;;;;;12.78;8.90;;;;;;;-1.16;88.61;99242.77;1794715;79;21156;-58
2021/03/20 03:51:51;;;;;;;13.62;10.15;;;;;;;-1.17;88.58;99236.35;1791989;79;21196;-59
2021/03/20 03:54:19;;;;;;;16.40;10.48;;;;;;;-1.17;88.63;99238.47;1774113;79;20986;-57
2021/03/20 03:57:26;;;;;;;18.40;11.08;;;;;;;-1.14;88.75;99236.12;1792266;79;21632;-57
2021/03/20 04:00:22;;;;;;;21.68;12.25;;;;;;;-1.12;88.70;99239.48;1787837;79;21052;-57
2021/03/20 04:03:06;;;;;;;21.77;10.72;;;;;;;-1.11;88.70;99235.92;1768345;80;21641;-58
2021/03/20 04:06:09;;;;;;;16.07;9.95;;;;;;;-1.11;88.77;99235.92;1743661;81;21376;-58
2021/03/20 04:09:23;;;;;;;18.07;11.25;;;;;;;-1.09;88.73;99241.87;1774417;79;21147;-58
2021/03/20 04:12:20;;;;;;;15.93;10.65;;;;;;;-1.11;88.51;99238.53;1773840;79;21018;-59
2021/03/20 04:14:54;;;;;;;21.57;11.45;;;;;;;-1.14;88.64;99238.73;1774094;79;21183;-58
2021/03/20 04:17:42;;;;;;;17.00;10.85;;;;;;;-1.14;88.80;99238.27;1787486;79;21103;-59
2021/03/20 04:20:33;;;;;;;20.55;12.25;;;;;;;-1.10;88.93;99246.28;1782813;79;21197;-58
2021/03/20 04:23:09;;;;;;;17.92;10.48;;;;;;;-1.07;88.78;99246.54;1782838;79;20957;-56
2021/03/20 04:26:10;;;;;;;13.90;9.83;;;;;;;-1.07;88.77;99241.32;1783290;79;21047;-58
2021/03/20 04:28:48;;;;;;;14.75;10.60;;;;;;;-1.08;88.81;99250.08;1783245;79;21086;-57
2021/03/20 04:31:23;;;;;;;14.28;10.60;;;;;;;-1.07;88.93;99247.84;1756323;80;21116;-59
2021/03/20 04:34:33;;;;;;;14.25;9.83;;;;;;;-1.06;88.83;99252.11;1773963;79;21357;-58
2021/03/20 04:37:12;;;;;;;16.67;9.65;;;;;;;-1.05;88.86;99253.80;1792750;79;21056;-59
2021/03/20 04:39:49;;;;;;;13.85;10.70;;;;;;;-1.04;88.96;99248.95;1788892;79;21608;-59
2021/03/20 04:42:23;;;;;;;16.02;10.82;;;;;;;-1.02;89.09;99249.67;1796134;79;21123;-59
2021/03/20 04:45:05;;;;;;;15.23;10.43;;;;;;;-0.95;89.09;99255.69;1814808;78;26437;-58
2021/03/20 04:47:32;;;;;;;15.60;11.08;;;;;;;-0.98;89.09;99260.27;1779223;79;21590;-58
2021/03/20 04:50:07;;;;;;;14.75;9.85;;;;;;;-0.95;89.15;99259.59;1777015;79;21356;-58
2021/03/20 04:52:41;;;;;;;15.10;10.75;;;;;;;-0.93;89.21;99255.10;1783591;79;20972;-59
2021/03/20 04:55:10;;;;;;;11.10;9.10;;;;;;;-0.92;89.22;99260.70;1776262;79;21483;-58
2021/03/20 04:58:06;;;;;;;11.43;8.78;;;;;;;-0.91;89.35;99262.82;1758513;80;20929;-58
2021/03/20 05:00:44;;;;;;;8.90;7.90;;;;;;;-0.86;89.65;99265.98;1743032;82;21018;-58
2021/03/20 05:03:31;;;;;;;9.93;7.87;;;;;;;-0.86;89.65;99265.98;1750226;82;21372;-59
2021/03/20 05:06:07;;;;;;;10.63;8.08;;;;;;;-0.85;89.62;99267.17;1750041;82;21499;-56
2021/03/20 05:08:46;;;;;;;10.50;8.75;;;;;;;-0.81;89.75;99263.40;1733658;82;21468;-58
2021/03/20 05:11:22;;;;;;;9.70;8.58;;;;;;;-0.76;89.66;99265.72;1747842;82;21014;-61
2021/03/20 05:13:55;;;;;;;;;;;;;;;-0.72;89.61;99271.93;1734394;82;21583;-59
2021/03/20 05:16:42;;;;;;;11.55;8.48;;;;;;;-0.65;89.62;99274.95;1724526;81;21205;-60
2021/03/20 05:19:09;;;;;;;;;;;;;;;-0.60;89.56;99270.27;1728960;81;21510;-58
2021/03/20 05:21:39;;;;;;;10.00;7.12;;;;;;;-0.53;89.31;99278.51;1724344;81;20136;-59
2021/03/20 05:24:10;;;;;;;13.68;8.35;;;;;;;-0.46;89.31;99277.97;1724438;81;21120;-58
2021/03/20 05:26:37;;;;;;;10.72;8.70;;;;;;;-0.39;89.15;99275.29;1739025;81;21134;-58
2021/03/20 05:29:05;;;;;;;13.00;9.90;;;;;;;-0.34;88.77;99281.53;1726395;81;21436;-60
2021/03/20 05:31:33;;;;;;;12.65;9.15;;;;;;;-0.29;88.73;99275.05;1724314;81;21001;-60
2021/03/20 05:34:01;;;;;;;14.20;10.63;;;;;;;-0.20;88.77;99277.00;1724418;81;20950;-57
2021/03/20 05:36:28;;;;;;;10.50;8.88;;;;;;;-0.10;88.75;99278.02;1724357;81;21158;-58
2021/03/20 05:38:56;;;;;;;11.53;9.20;;;;;;;0.03;88.53;99279.78;1748439;81;21156;-57
2021/03/20 05:41:48;;;;;;;9.98;8.18;;;;;;;0.13;88.31;99282.09;1753369;81;21354;-57
2021/03/20 05:45:00;;;;;;;9.18;7.70;;;;;;;0.25;88.02;99287.28;1722692;81;21072;-57
2021/03/20 05:47:52;;;;;;;8.18;6.95;;;;;;;0.37;87.49;99291.63;1787514;79;21197;-59
2021/03/20 05:50:51;;;;;;;8.78;7.87;;;;;;;0.52;87.05;99281.84;1783661;79;21096;-58
2021/03/20 05:53:56;;;;;;;7.70;6.72;;;;;;;0.61;86.25;99289.00;1787777;79;21683;-58
2021/03/20 05:56:44;;;;;;;10.05;7.20;;;;;;;0.70;85.57;99293.58;1773276;79;21436;-57
2021/03/20 05:59:38;;;;;;;9.03;6.58;;;;;;;0.78;85.14;99295.62;1766759;79;21150;-58
2021/03/20 06:02:42;;;;;;;6.90;6.12;;;;;;;0.88;84.61;99297.45;1786639;79;20920;-57
2021/03/20 06:05:53;;;;;;;6.85;5.83;;;;;;;1.03;84.04;99299.39;1788689;79;21030;-57
2021/03/20 06:08:47;;;;;;;8.08;7.00;;;;;;;1.18;83.45;99311.34;1778922;79;21102;-57
2021/03/20 06:11:40;;;;;;;9.93;6.45;;;;;;;1.30;82.60;99310.91;1761006;79;21361;-57
2021/03/20 06:14:38;;;;;;;7.53;6.65;;;;;;;1.39;82.11;99314.13;1768214;79;20930;-56
2021/03/20 06:17:34;;;;;;;8.18;7.28;;;;;;;1.54;81.89;99312.98;1800681;78;21001;-57
2021/03/20 06:20:45;;;;;;;7.33;6.62;;;;;;;1.68;81.29;99313.57;1777326;79;21056;-56
2021/03/20 06:24:08;;;;;;;8.10;7.25;;;;;;;1.80;80.54;99317.02;1733071;80;21546;-56
2021/03/20 06:26:38;;;;;;;7.95;6.28;;;;;;;1.84;79.69;99315.84;1732847;81;21200;-57
2021/03/20 06:29:20;;;;;;;7.87;6.55;;;;;;;1.87;79.52;99312.98;1731739;81;21013;-57
2021/03/20 06:31:53;;;;;;;7.28;6.10;;;;;;;1.90;78.95;99325.87;1716510;82;21068;-57
2021/03/20 06:34:31;;;;;;;8.98;6.92;;;;;;;1.93;78.89;99327.41;1690925;83;21199;-59
2021/03/20 06:37:05;;;;;;;7.65;6.85;;;;;;;1.97;78.54;99327.52;1747656;81;21120;-59
2021/03/20 06:39:59;;;;;;;8.40;6.17;;;;;;;2.02;78.46;99330.14;1695932;83;22280;-59
2021/03/20 06:42:33;;;;;;;7.80;7.00;;;;;;;2.08;77.99;99326.20;1695015;83;21079;-58
2021/03/20 06:45:07;;;;;;;8.03;7.22;;;;;;;2.04;77.43;99329.54;1698941;83;21028;-60
2021/03/20 06:47:35;;;;;;;7.30;6.60;;;;;;;1.97;77.21;99327.52;1695347;83;21530;-58
2021/03/20 06:50:20;;;;;;;7.58;6.87;;;;;;;1.94;77.34;99331.69;1681237;83;21584;-59
2021/03/20 06:52:53;;;;;;;9.93;7.45;;;;;;;1.93;77.28;99337.41;1707183;83;21610;-59
2021/03/20 06:55:36;;;;;;;8.13;7.33;;;;;;;1.91;77.17;99343.26;1719059;81;21170;-59
2021/03/20 06:58:24;;;;;;;10.00;8.48;;;;;;;1.88;77.03;99341.38;1720392;81;21006;-58
2021/03/20 07:00:52;;;;;;;10.90;9.28;;;;;;;1.86;77.13;99351.48;1751295;81;21068;-60
2021/03/20 07:04:07;;;;;;;12.03;10.75;;;;;;;1.82;77.04;99347.92;1739616;81;21200;-60
2021/03/20 07:06:53;;;;;;;13.95;11.73;;;;;;;1.78;77.33;99351.24;1720188;81;21379;-61
2021/03/20 07:09:21;;;;;;;12.37;11.18;;;;;;;1.77;77.30;99352.19;1721066;80;21182;-59
2021/03/20 07:12:12;;;;;;;11.20;9.55;;;;;;;1.69;76.78;99362.46;1723531;81;21089;-59
2021/03/20 07:14:48;;;;;;;14.47;13.08;;;;;;;1.65;76.85;99367.56;1715234;81;21045;-60
2021/03/20 07:17:27;;;;;;;14.95;13.38;;;;;;;1.65;77.00;99368.03;1722666;82;20957;-58
2021/03/20 07:20:15;;;;;;;15.83;13.72;;;;;;;1.63;76.92;99369.94;1716530;82;21192;-58
2021/03/20 07:22:48;;;;;;;19.07;13.95;;;;;;;1.67;76.96;99373.52;1714977;82;21597;-59
2021/03/20 07:25:34;;;;;;;25.15;19.77;;;;;;;1.72;76.81;99377.13;1730319;81;21159;-59
2021/03/20 07:28:09;;;;;;;17.10;14.63;;;;;;;1.78;76.35;99381.88;1717319;82;21583;-60
2021/03/20 07:30:53;;;;;;;18.60;13.57;;;;;;;1.81;75.86;99384.27;1709440;82;21179;-62
2021/03/20 07:33:47;;;;;;;14.40;12.13;;;;;;;1.90;75.80;99386.20;1698486;81;21388;-58
2021/03/20 07:36:36;;;;;;;12.28;11.00;;;;;;;2.05;75.27;99388.95;1717148;81;21088;-59
2021/03/20 07:39:19;;;;;;;12.03;10.80;;;;;;;2.23;74.57;99384.05;1697421;82;21044;-60
2021/03/20 07:42:00;;;;;;;10.90;8.88;;;;;;;2.35;73.99;99389.17;1716658;81;21170;-58
2021/03/20 07:44:32;;;;;;;8.90;8.00;;;;;;;2.54;73.41;99395.12;1715666;81;21012;-57
2021/03/20 07:47:00;;;;;;;10.80;8.75;;;;;;;2.70;72.68;99399.98;1715211;82;22218;-59
2021/03/20 07:49:31;;;;;;;10.80;8.40;;;;;;;2.80;72.23;99397.81;1716904;81;21025;-58
2021/03/20 07:52:02;;;;;;;12.40;9.23;;;;;;;2.91;71.79;99400.89;1717067;82;21451;-59
2021/03/20 07:54:36;;;;;;;9.53;8.53;;;;;;;2.96;71.36;99403.50;1717146;82;21096;-57
2021/03/20 07:57:13;;;;;;;9.70;8.10;;;;;;;3.00;70.80;99410.17;1716974;81;21146;-60
2021/03/20 07:59:49;;;;;;;12.00;9.45;;;;;;;2.98;70.36;99413.41;1716720;81;21431;-60
2021/03/20 08:02:34;;;;;;;11.05;8.13;;;;;;;2.91;70.18;99419.28;1716930;82;21043;-59
2021/03/20 08:05:27;;;;;;;9.53;8.53;;;;;;;2.86;70.22;99420.14;1717017;81;21136;-60
2021/03/20 08:07:54;;;;;;;9.83;8.83;;;;;;;2.79;70.25;99424.22;1717204;81;20954;-60
2021/03/20 08:10:32;;;;;;;9.78;8.15;;;;;;;2.69;70.19;99419.31;1717049;82;21827;-59
2021/03/20 08:13:17;;;;;;;10.28;8.23;;;;;;;2.63;70.13;99431.64;1714878;81;22134;-58
2021/03/20 08:15:48;;;;;;;;;;;;;;;2.55;70.30;99424.84;1713988;81;20961;-56
2021/03/20 08:18:32;;;;;;;12.25;8.48;;;;;;;2.55;70.60;99419.13;1699420;83;20305;-58
2021/03/20 08:21:17;;;;;;;8.70;7.80;;;;;;;2.63;70.40;99427.70;1704683;82;21171;-59
2021/03/20 08:24:17;;;;;;;8.60;7.70;;;;;;;2.71;70.18;99423.99;1717028;81;21136;-57
2021/03/20 08:27:07;;;;;;;8.30;7.50;;;;;;;2.77;69.52;99418.23;1716271;82;21449;-58
2021/03/20 08:30:04;;;;;;;8.98;8.08;;;;;;;2.76;68.87;99424.46;1716098;82;21078;-57
2021/03/20 08:32:59;;;;;;;8.93;7.12;;;;;;;2.81;68.98;99423.61;1712382;83;21194;-60
2021/03/20 08:35:51;;;;;;;8.63;6.97;;;;;;;2.86;68.80;99428.86;1713835;81;21143;-60
2021/03/20 08:38:24;;;;;;;7.97;6.85;;;;;;;2.83;67.75;99433.52;1716430;81;21068;-58
2021/03/20 08:41:09;;;;;;;6.12;5.53;;;;;;;2.90;67.97;99439.94;1716203;81;21414;-56
2021/03/20 08:44:18;;;;;;;6.20;5.60;;;;;;;3.01;67.21;99445.17;1716473;81;21211;-58
2021/03/20 08:47:06;;;;;;;7.47;6.75;;;;;;;3.13;67.77;99440.23;1716229;82;21168;-59
2021/03/20 08:49:49;;;;;;;6.47;5.87;;;;;;;3.44;67.33;99447.80;1716238;82;21057;-61
2021/03/20 08:52:30;;;;;;;8.65;6.22;;;;;;;3.70;65.69;99447.28;1716287;81;21017;-59
2021/03/20 08:55:18;;;;;;;7.22;5.75;;;;;;;3.82;65.29;99450.70;1716416;81;21392;-57
2021/03/20 08:58:07;;;;;;;6.97;6.28;;;;;;;3.95;64.34;99447.86;1691433;81;21148;-58
2021/03/20 09:00:52;;;;;;;9.48;6.75;;;;;;;3.94;63.61;99446.19;1715488;81;20959;-57
2021/03/20 09:03:23;;;;;;;7.25;6.08;;;;;;;3.92;63.37;99448.95;1716049;81;21084;-59
2021/03/20 09:05:58;;;;;;;6.78;6.08;;;;;;;3.86;62.78;99452.09;1691733;81;21179;-58
2021/03/20 09:08:35;;;;;;;9.00;7.03;;;;;;;3.81;63.03;99449.53;1716529;83;22087;-58
2021/03/20 09:11:22;;;;;;;18.85;14.30;;;;;;;3.79;62.71;99451.42;1723405;81;21443;-57
2021/03/20 09:13:55;;;;;;;16.40;13.00;;;;;;;3.78;62.81;99451.09;1716086;81;21599;-60
2021/03/20 09:16:56;;;;;;;8.23;7.08;;;;;;;3.74;62.76;99455.77;1708987;81;21191;-60
2021/03/20 09:19:35;;;;;;;8.60;7.25;;;;;;;3.64;62.33;99455.70;1716335;83;21136;-60
2021/03/20 09:22:12;;;;;;;8.20;7.12;;;;;;;3.48;62.46;99451.83;1715686;83;21216;-59
2021/03/20 09:24:52;;;;;;;8.33;6.65;;;;;;;3.37;62.84;99453.17;1716011;81;21044;-59
2021/03/20 09:28:02;;;;;;;6.78;5.92;;;;;;;3.35;63.21;99457.73;1698279;82;21638;-59
2021/03/20 09:30:48;;;;;;;5.95;5.25;;;;;;;3.42;63.07;99456.27;1715788;81;21464;-57
2021/03/20 09:33:35;;;;;;;5.67;5.10;;;;;;;3.39;62.49;99457.86;1716541;81;21072;-59
2021/03/20 09:36:23;;;;;;;5.50;4.95;;;;;;;3.44;62.37;99454.37;1716715;82;22067;-59
2021/03/20 09:38:55;;;;;;;7.33;5.30;;;;;;;3.52;61.67;99454.06;1716273;81;21226;-58
2021/03/20 09:41:33;;;;;;;6.58;5.40;;;;;;;3.58;61.24;99459.30;1716505;81;21194;-56
2021/03/20 09:44:07;;;;;;;9.38;6.45;;;;;;;3.68;61.53;99454.47;1716452;82;21135;-56
2021/03/20 09:46:45;;;;;;;10.45;7.15;;;;;;;3.86;61.51;99453.41;1714954;83;21132;-59
2021/03/20 09:49:20;;;;;;;6.58;5.30;;;;;;;4.06;60.67;99451.27;1716307;81;21016;-56
2021/03/20 09:51:58;;;;;;;10.05;5.58;;;;;;;4.21;59.84;99449.97;1716491;81;21646;-59
2021/03/20 09:54:41;;;;;;;7.95;5.05;;;;;;;4.39;59.41;99448.86;1716194;81;21130;-61
2021/03/20 09:59:46;;;;;;;5.78;5.17;;;;;;;4.76;58.34;99445.19;1716610;81;21182;-58
2021/03/20 10:02:27;;;;;;;4.90;4.40;;;;;;;4.86;57.64;99453.48;1716433;81;21364;-62
2021/03/20 10:05:04;;;;;;;5.87;4.78;;;;;;;4.99;57.09;99447.47;1716205;82;21005;-62
2021/03/20 10:07:34;;;;;;;9.48;4.67;;;;;;;5.15;56.69;99445.63;1715732;81;21631;-58
2021/03/20 10:10:17;;;;;;;5.60;4.95;;;;;;;5.33;56.42;99443.14;1716331;82;21167;-61
2021/03/20 10:12:56;;;;;;;6.40;5.42;;;;;;;5.45;55.70;99444.66;1716416;83;21135;-61
2021/03/20 10:15:31;;;;;;;6.65;4.78;;;;;;;5.69;54.87;99441.12;1708572;81;21445;-60
2021/03/20 10:18:07;;;;;;;8.60;5.20;;;;;;;6.00;54.41;99437.83;1716292;82;21005;-59
2021/03/20 10:20:44;;;;;;;5.67;5.10;;;;;;;6.30;53.97;99435.47;1727081;81;21088;-59
2021/03/20 10:23:41;;;;;;;7.10;5.30;;;;;;;6.63;53.55;99436.23;1716408;81;21192;-59
2021/03/20 10:26:26;;;;;;;5.50;5.00;;;;;;;6.98;52.12;99428.41;1715160;82;21362;-59
2021/03/20 10:28:58;;;;;;;5.17;4.67;;;;;;;7.48;51.73;99422.61;1711513;82;21207;-61
2021/03/20 10:31:29;;;;;;;5.83;5.15;;;;;;;8.07;50.42;99420.09;1714688;82;21080;-58
2021/03/20 10:34:13;;;;;;;9.70;5.12;;;;;;;8.64;49.29;99418.12;1712842;81;21103;-57
2021/03/20 10:36:50;;;;;;;5.45;4.78;;;;;;;9.02;48.32;99423.38;1711916;81;21071;-60
2021/03/20 10:39:36;;;;;;;9.38;5.05;;;;;;;9.06;47.51;99419.91;1685921;83;21688;-58
2021/03/20 10:42:09;;;;;;;5.03;4.53;;;;;;;8.96;46.96;99424.05;1713433;81;22133;-61
2021/03/20 10:44:38;;;;;;;5.42;4.92;;;;;;;8.72;46.56;99424.44;1712333;82;21101;-60
2021/03/20 10:47:24;;;;;;;16.95;5.97;;;;;;;8.32;46.61;99434.34;1713389;82;21207;-70
2021/03/20 10:50:06;;;;;;;8.18;4.70;;;;;;;7.99;47.36;99443.39;1715004;81;21088;-64
2021/03/20 10:52:41;;;;;;;4.92;4.33;;;;;;;7.62;48.12;99448.53;1712984;81;21585;-60
2021/03/20 10:55:24;;;;;;;7.33;4.40;;;;;;;7.19;48.31;99454.09;1715116;82;22306;-64
2021/03/20 10:57:54;;;;;;;5.85;5.17;;;;;;;6.58;49.16;99453.02;1714725;83;21123;-58
2021/03/20 11:00:43;;;;;;;5.83;5.22;;;;;;;5.90;50.71;99454.19;1715025;82;21124;-58
2021/03/20 11:03:39;;;;;;;6.05;4.62;;;;;;;5.42;52.22;99455.52;1714791;81;21171;-58
2021/03/20 11:06:18;;;;;;;6.28;4.45;;;;;;;5.14;53.16;99457.13;1713550;80;21128;-57
2021/03/20 11:08:52;;;;;;;6.58;5.12;;;;;;;4.79;53.89;99453.67;1715012;81;22266;-58
2021/03/20 11:11:30;;;;;;;5.60;3.92;;;;;;;4.52;54.43;99448.63;1713384;82;21044;-58
2021/03/20 11:14:06;;;;;;;5.75;4.72;;;;;;;4.36;54.96;99451.28;1697783;81;21036;-57
2021/03/20 11:16:36;;;;;;;;;;;;;;;4.29;55.33;99447.98;1712242;81;21171;-58
2021/03/20 11:19:12;;;;;;;6.47;5.20;;;;;;;4.24;55.64;99450.19;1693817;82;20314;-59
2021/03/20 11:21:44;;;;;;;10.20;4.03;;;;;;;4.26;55.80;99449.09;1715071;81;21317;-59
2021/03/20 11:24:26;;;;;;;8.23;6.53;;;;;;;4.45;55.60;99441.77;1714730;81;21607;-57
2021/03/20 11:26:53;;;;;;;9.03;5.70;;;;;;;4.71;55.34;99436.86;1720151;82;21105;-58
2021/03/20 11:29:27;;;;;;;9.40;5.58;;;;;;;5.03;54.96;99440.62;1724783;82;21123;-58
2021/03/20 11:32:04;;;;;;;5.65;5.03;;;;;;;5.36;54.53;99432.31;1724874;81;21013;-58
2021/03/20 11:34:36;;;;;;;11.05;6.12;;;;;;;5.68;52.89;99427.59;1702212;83;21403;-57
2021/03/20 11:37:07;;;;;;;6.72;5.80;;;;;;;5.78;52.32;99431.05;1724195;82;21491;-58
2021/03/20 11:39:35;;;;;;;7.20;5.00;;;;;;;5.71;52.27;99425.97;1723231;82;21518;-58
2021/03/20 11:42:07;;;;;;;5.53;4.78;;;;;;;5.80;52.20;99431.73;1724815;81;21131;-58
2021/03/20 11:44:43;;;;;;;4.42;4.03;;;;;;;5.99;52.27;99433.06;1724914;82;21111;-59
2021/03/20 11:47:27;;;;;;;4.33;3.87;;;;;;;6.19;51.85;99430.71;1722925;82;21609;-59
2021/03/20 11:49:57;;;;;;;4.15;3.75;;;;;;;6.44;51.37;99423.93;1724827;81;21514;-60
2021/03/20 11:52:32;;;;;;;6.08;4.67;;;;;;;6.67;50.20;99423.89;1724795;82;20950;-59
2021/03/20 11:55:04;;;;;;;6.45;4.17;;;;;;;6.88;50.41;99414.41;1730821;80;21099;-59
2021/03/20 11:57:37;;;;;;;5.72;4.37;;;;;;;7.22;50.23;99408.79;1724901;81;21565;-59
2021/03/20 12:00:34;;;;;;;7.42;4.12;;;;;;;7.57;49.21;99413.74;1724959;82;21356;-60
2021/03/20 12:03:06;;;;;;;5.15;4.03;;;;;;;7.81;47.35;99407.33;1703801;82;21662;-58
2021/03/20 12:05:36;;;;;;;4.70;4.30;;;;;;;7.96;47.19;99409.74;1702499;82;21175;-60
2021/03/20 12:08:21;;;;;;;5.75;4.42;;;;;;;7.99;46.64;99402.81;1724815;81;21071;-58
2021/03/20 12:11:09;;;;;;;8.18;5.62;;;;;;;7.84;45.83;99408.34;1720106;82;21080;-59
2021/03/20 12:13:45;;;;;;;4.47;4.08;;;;;;;7.57;46.27;99398.70;1715261;81;21367;-59
2021/03/20 12:16:36;;;;;;;4.60;4.20;;;;;;;7.36;46.78;99400.34;1716124;82;21111;-59
2021/03/20 12:19:16;;;;;;;4.15;3.62;;;;;;;7.24;47.01;99402.88;1724697;82;21135;-57
2021/03/20 12:22:07;;;;;;;4.25;3.85;;;;;;;7.20;47.30;99402.83;1724717;81;21214;-58
2021/03/20 12:24:46;;;;;;;4.70;4.05;;;;;;;7.24;47.68;99403.37;1724861;81;21664;-59
2021/03/20 12:27:37;;;;;;;6.47;3.62;;;;;;;7.34;47.63;99402.31;1724378;81;21373;-59
2021/03/20 12:30:31;;;;;;;5.10;4.33;;;;;;;7.42;47.60;99397.09;1724793;81;21194;-59
2021/03/20 12:33:15;;;;;;;6.15;5.05;;;;;;;7.48;47.42;99396.14;1724756;81;21029;-59
2021/03/20 12:35:47;;;;;;;7.70;5.35;;;;;;;7.42;46.89;99394.94;1724812;81;21554;-58